Aérodrome :
LOGIN :

S'inscrire | Disclaimer

   EN    FR    IT 

 










Légende :    VFR   VFR Marginal   IFR   IFR Intensif   IFR Très Intensif
Visi : 
Plafond : 
>= 8 km
>= 3000ft
5 à 8 km
1000 à 3000 ft
1500m à 5 km
500 à 1000 ft
800 à 1500m
200 à 500 ft
< 800m
< 200 ft
Symboles :   Orages  Brouillard  Fortes neiges  Fortes précipitations  Vent > 20 kt
SIGMETs :   Divers  Orages  Givrage  Turbulence  Onde Orograph.  Cendres Volcan.






- Altitude de l'aérodrome : 1682 ft
- Code IATA : VIT


LEVT - Vitoria Gasteiz

DERNIER METAR :
  • 190530Z 00000KT 3100 0400NE R04/2000N R22/0500D BCFG FEW020 02/02 Q1017

METARs EXPIRÉS :
  • 190500Z 26002KT 4000 0600NE R22/1400U R04/2000N BCFG FEW020 SCT035 03/03 Q1017
  • 190447Z 25003KT 210V330 0500 R04/P2000 R22/1200U BCFG FEW020 SCT035 03/03 Q1017
  • 190430Z 29003KT 260V330 0800 R04/P2000 R22/0750N BCFG SCT020 BKN036 03/03 Q1017
  • 190400Z 00000KT 5000 BCFG SCT020 OVC037 04/04 Q1017
  • 190330Z VRB01KT 6000 BCFG SCT020 OVC038 04/04 Q1018
  • 190300Z 00000KT 3500 BCFG FEW020 BKN038 04/03 Q1018

TAF TAF LEVT
Valide du 19 à 06h jusqu'au 20 à 06h UTC


190500Z 1906/2006 VRB05KT 9999 FEW020 SCT030 TX08/1914Z TNM00/1906Z
TEMPO 1906/1910 3000 BR BCFG
PROB40
TEMPO 1906/1909 0800 FZFG BKN001
PROB30
TEMPO 1906/1909 0350 FZFG BKN001



MET'MAP, la Météo Aéronautique d'un coup d'oeil ! - Copyright ORBIFLY Décembre 2007 - Disclaimer

ORBIFLY MET'MAP TEAM :

Programmation & Développement : Alexandra Zaïnal
Conception & Développement : Baudouin d'Aumeries
Co-Programmation & Développement : Marc-Olivier Méhu
Soutien technique & logistique : Manuel Goepfert

Contact : metmap@orbifly.com




SOURCES & CREDITS :

   NOAA